KMTN

Martin State  Airport

Baltimore, Maryland, USA

KMTN 190145Z 16008KT 10SM OVC120 14/09 A2951

Observed Flight Rules
Nov-19 @ 01:45 UTC (an hour ago)
 
Visual Flight Rules
Wind Visibility Clouds
160° at 8 knots 10 miles
  • Overcast at 12,000' AGL
Temperatures Readings
Current 14°C / 57°F
Dewpoint 9°C / 48°F
Humidity 72%
Altimeter 29.51" Hg
Pressure 999 hPa
Elevation 7
Observed Flight Rules
Nov-19 @ 01:45 UTC
(an hour ago)
 
VFR
Wind Visibility
160° at 8 knots 10 miles
Clouds
  • Overcast at 12,000' AGL
Temperature Dewpoint
14°C / 57°F 9°C / 48°F
Humidity Altimeter Pressure
72% 29.51" Hg 999 hPa